TimeCEST,TemperatureF,Dew PointF,Humidity,Sea Level PressureIn,VisibilityMPH,Wind Direction,Wind SpeedMPH,Gust SpeedMPH,PrecipitationIn,Events,Conditions,WindDirDegrees,DateUTC
12:00 AM,71.6,59.0,64,30.18,-9999.0,NNE,3.5,-,N/A,,Clear,30,2013-07-05 22:00:00
12:30 AM,71.6,60.8,69,30.21,-9999.0,Variable,2.3,-,N/A,,Clear,0,2013-07-05 22:30:00
1:00 AM,69.8,60.8,73,30.21,-9999.0,NNE,2.3,-,N/A,,Clear,30,2013-07-05 23:00:00
1:30 AM,68.0,60.8,78,30.18,-9999.0,East,2.3,-,N/A,,Clear,80,2013-07-05 23:30:00
2:00 AM,67,58,67,30.20,9,East,4.6,,,,,80,2013-07-06 00:00:00
2:00 AM,68.0,59.0,73,30.18,-9999.0,Calm,Calm,-,N/A,,Clear,0,2013-07-06 00:00:00
2:30 AM,66.2,59.0,78,30.18,-9999.0,NNE,6.9,-,N/A,,Clear,30,2013-07-06 00:30:00
3:00 AM,66.2,59.0,78,30.18,-9999.0,NE,3.5,-,N/A,,Clear,40,2013-07-06 01:00:00
3:30 AM,66.2,59.0,78,30.18,-9999.0,NNE,1.2,-,N/A,,Clear,20,2013-07-06 01:30:00
4:00 AM,66.2,59.0,78,30.18,-9999.0,Calm,Calm,-,N/A,,Clear,0,2013-07-06 02:00:00
4:30 AM,64.4,59.0,83,30.18,-9999.0,NNE,1.2,-,N/A,,Clear,30,2013-07-06 02:30:00
5:00 AM,64.4,59.0,83,30.18,-9999.0,NE,4.6,-,N/A,,Clear,40,2013-07-06 03:00:00
5:30 AM,62.6,59.0,88,30.18,-9999.0,North,3.5,-,N/A,,Clear,10,2013-07-06 03:30:00
6:00 AM,62.6,59.0,88,30.18,-9999.0,North,4.6,-,N/A,,Clear,10,2013-07-06 04:00:00
6:30 AM,62.6,57.2,82,30.18,-9999.0,Variable,1.2,-,N/A,,Clear,0,2013-07-06 04:30:00
7:00 AM,62.6,57.2,82,30.18,-9999.0,NNE,3.5,-,N/A,,Clear,20,2013-07-06 05:00:00
7:30 AM,66.2,59.0,78,30.18,-9999.0,Variable,2.3,-,N/A,,Clear,0,2013-07-06 05:30:00
8:00 AM,68,60,69,30.20,12,Calm,Calm,,,,,,2013-07-06 06:00:00
8:00 AM,69.8,60.8,73,30.18,-9999.0,NNE,3.5,-,N/A,,Clear,30,2013-07-06 06:00:00
8:30 AM,73.4,64.4,73,30.18,-9999.0,NNE,3.5,-,N/A,,Clear,20,2013-07-06 06:30:00
9:00 AM,75.2,64.4,69,30.18,-9999.0,NNE,3.5,-,N/A,,Clear,20,2013-07-06 07:00:00
9:30 AM,77.0,64.4,65,30.21,-9999.0,Variable,1.2,-,N/A,,Clear,0,2013-07-06 07:30:00
10:00 AM,78.8,60.8,54,30.18,-9999.0,SSW,1.2,-,N/A,,Clear,210,2013-07-06 08:00:00
10:30 AM,82.4,60.8,48,30.18,-9999.0,West,1.2,-,N/A,,Clear,280,2013-07-06 08:30:00
11:00 AM,82.4,60.8,48,30.18,-9999.0,SW,3.5,-,N/A,,Clear,230,2013-07-06 09:00:00
11:30 AM,80.6,60.8,51,30.21,-9999.0,SW,8.1,-,N/A,,Clear,220,2013-07-06 09:30:00
12:00 PM,82.4,62.6,51,30.21,-9999.0,SW,10.4,-,N/A,,Clear,230,2013-07-06 10:00:00
12:30 PM,80.6,64.4,58,30.21,-9999.0,WSW,11.5,-,N/A,,Clear,240,2013-07-06 10:30:00
1:00 PM,80.6,64.4,58,30.21,-9999.0,SW,12.7,-,N/A,,Clear,230,2013-07-06 11:00:00
1:30 PM,80.6,66.2,61,30.21,6.2,WSW,13.8,-,N/A,,Partly Cloudy,240,2013-07-06 11:30:00
2:00 PM,83,62,38,30.20,19,SW,13.8,,,,Scattered Clouds,220,2013-07-06 12:00:00
2:00 PM,82.4,60.8,48,30.18,6.2,SW,13.8,-,N/A,,Partly Cloudy,230,2013-07-06 12:00:00
2:30 PM,84.2,59.0,42,30.18,6.2,SW,11.5,-,N/A,,Partly Cloudy,230,2013-07-06 12:30:00
3:00 PM,84.2,59.0,42,30.18,6.2,SW,13.8,-,N/A,,Partly Cloudy,230,2013-07-06 13:00:00
3:30 PM,84.2,62.6,48,30.18,6.2,SW,11.5,-,N/A,,Partly Cloudy,230,2013-07-06 13:30:00
4:00 PM,84.2,60.8,45,30.18,6.2,SW,10.4,-,N/A,,Partly Cloudy,220,2013-07-06 14:00:00
4:30 PM,84.2,60.8,45,30.18,6.2,SW,11.5,-,N/A,,Partly Cloudy,220,2013-07-06 14:30:00
5:00 PM,84.2,59.0,42,30.18,6.2,SW,10.4,-,N/A,,Partly Cloudy,220,2013-07-06 15:00:00
5:30 PM,82.4,62.6,51,30.15,6.2,SSW,10.4,-,N/A,,Partly Cloudy,210,2013-07-06 15:30:00
6:00 PM,84.2,59.0,42,30.15,6.2,SSW,10.4,-,N/A,,Partly Cloudy,210,2013-07-06 16:00:00
6:30 PM,84.2,57.2,40,30.15,6.2,SSW,9.2,-,N/A,,Partly Cloudy,210,2013-07-06 16:30:00
7:00 PM,84.2,55.4,37,30.15,6.2,SW,8.1,-,N/A,,Partly Cloudy,220,2013-07-06 17:00:00
7:30 PM,82.4,57.2,42,30.15,-9999.0,SW,6.9,-,N/A,,Clear,220,2013-07-06 17:30:00
8:00 PM,82,58,34,30.17,19,SW,6.9,,,,,220,2013-07-06 18:00:00
8:00 PM,82.4,59.0,45,30.15,-9999.0,SSW,4.6,-,N/A,,Clear,210,2013-07-06 18:00:00
8:30 PM,80.6,60.8,51,30.15,-9999.0,SW,4.6,-,N/A,,Clear,220,2013-07-06 18:30:00
9:00 PM,80.6,60.8,51,30.15,-9999.0,SSW,2.3,-,N/A,,Clear,210,2013-07-06 19:00:00
9:30 PM,78.8,62.6,57,30.15,-9999.0,SW,1.2,-,N/A,,Clear,230,2013-07-06 19:30:00
10:00 PM,75.2,60.8,61,30.15,-9999.0,Calm,Calm,-,N/A,,Clear,0,2013-07-06 20:00:00
10:30 PM,71.6,60.8,69,30.18,-9999.0,Calm,Calm,-,N/A,,Clear,0,2013-07-06 20:30:00
11:00 PM,71.6,62.6,73,30.18,-9999.0,Calm,Calm,-,N/A,,Clear,0,2013-07-06 21:00:00
11:30 PM,71.6,60.8,69,30.18,-9999.0,Calm,Calm,-,N/A,,Clear,0,2013-07-06 21:30:00